Alsace Manor, Pennsylvania
Current Conditions -  °F | °C
As of 11:54 AM on Sunday 23 Nov 2014 (Local Time) from KRDG Reporting Station
Clear Clear  
Wind Chill: 12°   Ceiling: Unl
Heat Index: 12°   Visibility: 10mi
Dew Point: -5°   Wind: 3mph
Humidity: 31%   Direction: 180°S
Pressure: 30.14"   Gusts: NA
Location:  40.4008°N, 75.8851°W
Report Text: KRDG 231654Z 18003KT 10SM CLR 12/M05 A3014 RMK AO2 SLP213 T01171050
Loading
Personal Weather Stations






























Interactive Weather Map New forecast layout! Learn more

10-Day Weather Forecast

Advertisements
Track Severe Weather on mobile